Aviation Digital Data Service (ADDS)

Output produced by METARs form (0244 UTC 06 February 2016)
found at http://www.aviationweather.gov/adds/metars/
 
KBMI 052328Z 0600/0624 VRB03KT P6SM SCT025 BKN080 
     FM061000 19006KT P6SM SCT020 BKN040 
     FM061600 23010KT P6SM SCT040